Time;durP1;ratioP1;P1;durP2;ratioP2;P2;SDS_P1;SDS_P2;PMS_P1;PMS_P2;Temp;Humidity;BMP_temperature;BMP_pressure;BME280_temperature;BME280_humidity;BME280_pressure;Samples;Min_cycle;Max_cycle;Signal;HPM_P1;HPM_P2
2023/04/30 00:01:29;;;;;;;3.63;2.00;;;12.80;71.90;;;;;;5047890;28;20206;-69
2023/04/30 00:03:57;;;;;;;3.93;2.30;;;12.80;71.90;;;;;;5048388;28;20314;-69
2023/04/30 00:06:25;;;;;;;2.40;2.20;;;12.80;71.90;;;;;;5040897;28;20203;-69
2023/04/30 00:08:52;;;;;;;2.70;1.83;;;12.80;71.90;;;;;;5059610;28;20238;-69
2023/04/30 00:11:19;;;;;;;3.23;2.10;;;12.80;71.90;;;;;;5050775;28;20203;-69
2023/04/30 00:13:46;;;;;;;6.10;1.57;;;12.70;71.60;;;;;;5047909;28;20661;-69
2023/04/30 00:16:13;;;;;;;4.40;1.70;;;12.70;71.50;;;;;;5049407;28;20192;-69
2023/04/30 00:18:40;;;;;;;2.43;1.63;;;12.80;71.50;;;;;;5052302;28;20208;-69
2023/04/30 00:21:09;;;;;;;2.60;1.60;;;12.80;71.50;;;;;;5053250;28;20653;-69
2023/04/30 00:23:36;;;;;;;1.50;1.40;;;12.70;71.40;;;;;;5052686;28;20190;-69
2023/04/30 00:26:03;;;;;;;1.57;1.43;;;12.70;71.30;;;;;;5055436;28;20279;-70
2023/04/30 00:28:30;;;;;;;1.63;1.07;;;12.70;71.20;;;;;;5051370;28;20194;-69
2023/04/30 00:30:57;;;;;;;1.20;1.10;;;12.60;71.00;;;;;;5047631;28;20300;-69
2023/04/30 00:33:24;;;;;;;1.23;1.13;;;12.60;71.00;;;;;;5050589;28;20204;-68
2023/04/30 00:35:52;;;;;;;1.30;1.10;;;12.60;71.00;;;;;;5052731;28;20202;-69
2023/04/30 00:38:20;;;;;;;1.40;1.13;;;12.60;71.00;;;;;;5052641;28;20230;-68
2023/04/30 00:40:47;;;;;;;0.90;0.90;;;12.60;70.90;;;;;;5051409;28;20201;-68
2023/04/30 00:43:14;;;;;;;1.30;1.20;;;12.60;70.80;;;;;;5051744;28;20727;-69
2023/04/30 00:45:42;;;;;;;0.93;0.93;;;12.60;70.70;;;;;;5050152;28;20218;-69
2023/04/30 00:48:09;;;;;;;3.43;1.30;;;12.50;70.60;;;;;;5051084;28;20252;-69
2023/04/30 00:50:36;;;;;;;3.67;1.30;;;12.50;70.40;;;;;;5052436;28;20297;-68
2023/04/30 00:53:04;;;;;;;1.97;1.50;;;12.50;70.50;;;;;;5061707;28;20195;-69
2023/04/30 00:55:33;;;;;;;4.57;1.93;;;12.50;70.30;;;;;;5066102;28;20210;-69
2023/04/30 00:58:01;;;;;;;2.20;1.43;;;12.40;70.00;;;;;;5050334;28;20204;-69
2023/04/30 01:00:29;;;;;;;3.20;1.43;;;12.40;70.00;;;;;;5049096;28;20670;-69
2023/04/30 01:02:57;;;;;;;2.27;1.30;;;12.40;70.20;;;;;;5052157;28;20604;-69
2023/04/30 01:05:24;;;;;;;1.53;1.00;;;12.30;70.10;;;;;;5051942;28;20261;-70
2023/04/30 01:07:54;;;;;;;2.80;1.30;;;12.30;70.10;;;;;;5052417;28;20199;-70
2023/04/30 01:10:25;;;;;;;1.57;1.20;;;12.20;70.00;;;;;;5051753;28;20217;-69
2023/04/30 01:13:00;;;;;;;1.83;1.30;;;12.20;70.10;;;;;;5050158;28;20199;-69
2023/04/30 01:15:36;;;;;;;1.30;1.20;;;12.20;70.20;;;;;;5061182;28;20641;-69
2023/04/30 01:18:07;;;;;;;1.37;0.80;;;12.20;70.10;;;;;;5045532;28;20665;-68
2023/04/30 01:20:38;;;;;;;2.03;1.10;;;12.10;70.00;;;;;;5046950;28;20193;-69
2023/04/30 01:23:21;;;;;;;2.00;1.30;;;12.10;70.10;;;;;;5062309;28;20220;-68
2023/04/30 01:26:01;;;;;;;1.77;1.30;;;12.10;70.00;;;;;;5051063;28;20308;-69
2023/04/30 01:28:29;;;;;;;3.00;2.00;;;12.10;70.00;;;;;;5050993;28;20744;-69
2023/04/30 01:30:58;;;;;;;1.47;1.27;;;12.10;70.00;;;;;;5049475;28;20288;-70
2023/04/30 01:33:26;;;;;;;1.60;1.20;;;12.10;70.00;;;;;;5050756;28;20208;-69
2023/04/30 01:36:15;;;;;;;2.90;1.30;;;12.10;70.00;;;;;;5054211;28;20197;-70
2023/04/30 01:39:04;;;;;;;1.10;1.00;;;12.00;70.00;;;;;;5043772;28;20627;-70
2023/04/30 01:41:38;;;;;;;2.17;1.23;;;12.00;70.00;;;;;;5046636;28;20260;-70
2023/04/30 01:44:18;;;;;;;1.10;1.00;;;12.00;70.00;;;;;;5049962;28;20204;-67
2023/04/30 01:46:55;;;;;;;1.33;1.23;;;11.90;69.80;;;;;;5061891;28;20691;-68
2023/04/30 01:49:30;;;;;;;1.53;1.00;;;11.90;69.90;;;;;;5052858;28;20208;-69
2023/04/30 01:52:08;;;;;;;1.23;1.00;;;11.80;69.90;;;;;;5052706;28;20205;-70
2023/04/30 01:54:49;;;;;;;0.70;0.50;;;11.80;69.90;;;;;;5050091;28;20263;-70
2023/04/30 01:57:21;;;;;;;1.43;1.03;;;11.80;70.00;;;;;;5045605;28;20192;-68
2023/04/30 01:59:50;;;;;;;1.70;0.83;;;11.80;69.90;;;;;;5045222;28;20203;-68
2023/04/30 02:02:17;;;;;;;0.80;0.80;;;11.80;70.00;;;;;;5056528;28;20198;-69
2023/04/30 02:04:44;;;;;;;0.67;0.60;;;11.80;70.00;;;;;;5044825;28;20247;-69
2023/04/30 02:07:13;;;;;;;2.00;1.00;;;11.80;70.00;;;;;;5049766;28;20229;-69
2023/04/30 02:09:41;;;;;;;0.97;0.80;;;11.70;70.00;;;;;;5045459;28;20202;-70
2023/04/30 02:12:08;;;;;;;0.67;0.67;;;11.70;70.20;;;;;;5050405;28;20205;-70
2023/04/30 02:14:35;;;;;;;2.10;1.10;;;11.70;70.20;;;;;;5051021;28;20660;-70
2023/04/30 02:17:03;;;;;;;4.00;1.10;;;11.60;70.20;;;;;;5051606;28;20205;-70
2023/04/30 02:19:31;;;;;;;1.27;0.80;;;11.60;70.30;;;;;;5051901;28;20202;-70
2023/04/30 02:21:59;;;;;;;2.03;1.03;;;11.60;70.40;;;;;;5059935;28;20688;-70
2023/04/30 02:24:26;;;;;;;1.33;0.90;;;11.60;70.40;;;;;;5050569;28;20665;-70
2023/04/30 02:26:53;;;;;;;2.50;1.20;;;11.60;70.50;;;;;;5056749;28;20251;-70
2023/04/30 02:29:20;;;;;;;1.93;1.20;;;11.60;70.60;;;;;;5059066;28;20572;-70
2023/04/30 02:31:47;;;;;;;0.83;0.80;;;11.60;70.80;;;;;;5049047;28;20206;-70
2023/04/30 02:34:17;;;;;;;2.77;0.83;;;11.50;70.70;;;;;;5048888;28;20282;-70
2023/04/30 02:36:44;;;;;;;3.20;1.70;;;11.50;70.90;;;;;;5049617;28;20612;-70
2023/04/30 02:39:11;;;;;;;2.90;2.00;;;11.50;71.00;;;;;;5050471;28;20198;-69
2023/04/30 02:41:38;;;;;;;2.80;1.43;;;11.40;71.00;;;;;;5048457;28;20667;-69
2023/04/30 02:44:05;;;;;;;1.83;1.00;;;11.40;71.10;;;;;;5048931;28;20534;-69
2023/04/30 02:46:32;;;;;;;1.37;1.00;;;11.50;71.20;;;;;;5048599;28;20275;-69
2023/04/30 02:48:59;;;;;;;0.80;0.80;;;11.40;71.20;;;;;;5050650;28;20202;-70
2023/04/30 02:51:27;;;;;;;1.40;1.00;;;11.40;71.20;;;;;;5050328;28;20200;-70
2023/04/30 02:53:55;;;;;;;2.93;1.37;;;11.40;71.30;;;;;;5044993;28;20190;-70
2023/04/30 02:56:22;;;;;;;1.70;0.93;;;11.40;71.40;;;;;;5066030;28;20281;-69
2023/04/30 02:58:49;;;;;;;1.43;0.77;;;11.40;71.40;;;;;;5057340;28;20300;-68
2023/04/30 03:01:16;;;;;;;1.03;0.80;;;11.30;71.50;;;;;;5047730;28;20210;-70
2023/04/30 03:03:43;;;;;;;1.53;0.97;;;11.30;71.70;;;;;;5048961;28;20597;-68
2023/04/30 03:06:10;;;;;;;1.07;0.97;;;11.30;72.20;;;;;;5047562;28;20190;-67
2023/04/30 03:08:39;;;;;;;1.90;0.87;;;11.30;72.00;;;;;;5050113;28;20207;-68
2023/04/30 03:11:06;;;;;;;2.27;0.83;;;11.30;72.00;;;;;;5049611;28;20580;-68
2023/04/30 03:13:33;;;;;;;1.17;0.80;;;11.30;72.00;;;;;;5049235;28;20193;-68
2023/04/30 03:16:01;;;;;;;1.20;0.90;;;11.30;72.00;;;;;;5054676;28;20211;-68
2023/04/30 03:18:29;;;;;;;1.00;0.80;;;11.30;72.00;;;;;;5050930;28;20202;-70
2023/04/30 03:20:56;;;;;;;1.37;0.90;;;11.30;72.00;;;;;;5051212;28;20200;-68
2023/04/30 03:23:24;;;;;;;1.90;0.83;;;11.20;72.10;;;;;;5048253;28;20260;-69
2023/04/30 03:25:52;;;;;;;2.83;0.97;;;11.20;72.20;;;;;;5050297;28;20832;-69
2023/04/30 03:28:19;;;;;;;0.97;0.80;;;11.20;72.30;;;;;;5047845;28;20217;-68
2023/04/30 03:30:47;;;;;;;2.97;1.27;;;11.20;72.30;;;;;;5050703;28;20224;-69
2023/04/30 03:33:14;;;;;;;1.50;1.03;;;11.20;72.40;;;;;;5049734;28;20194;-70
2023/04/30 03:35:41;;;;;;;1.70;0.77;;;11.10;72.40;;;;;;5050678;28;20197;-69
2023/04/30 03:38:09;;;;;;;1.30;1.03;;;11.10;72.60;;;;;;5047905;28;20202;-71
2023/04/30 03:40:36;;;;;;;2.27;0.80;;;11.00;72.70;;;;;;5049930;28;20585;-71
2023/04/30 03:43:05;;;;;;;3.23;1.03;;;11.00;72.90;;;;;;5049511;28;20198;-71
2023/04/30 03:45:32;;;;;;;2.53;1.10;;;11.00;73.00;;;;;;5046644;28;20283;-71
2023/04/30 03:47:59;;;;;;;1.10;0.90;;;10.90;73.00;;;;;;5060948;28;20311;-71
2023/04/30 03:50:26;;;;;;;2.97;1.07;;;10.90;73.10;;;;;;5048957;28;20217;-71
2023/04/30 03:52:55;;;;;;;1.07;0.80;;;10.90;73.30;;;;;;5049627;28;20274;-71
2023/04/30 03:55:22;;;;;;;1.30;1.00;;;10.90;73.30;;;;;;5051920;28;20212;-71
2023/04/30 03:57:49;;;;;;;1.40;0.90;;;10.90;73.40;;;;;;5054985;28;20604;-70
2023/04/30 04:00:18;;;;;;;2.47;0.73;;;10.90;73.50;;;;;;5056880;28;20209;-69
2023/04/30 04:02:49;;;;;;;2.63;1.20;;;10.90;73.60;;;;;;5048800;28;20207;-69
2023/04/30 04:05:16;;;;;;;1.90;1.00;;;10.90;73.80;;;;;;5053919;28;20233;-69
2023/04/30 04:07:45;;;;;;;3.00;1.00;;;10.90;73.80;;;;;;5057068;28;20229;-69
2023/04/30 04:10:12;;;;;;;1.93;1.00;;;10.90;73.80;;;;;;5056214;28;20208;-69
2023/04/30 04:12:39;;;;;;;4.57;1.10;;;10.90;73.90;;;;;;5053277;28;20676;-69
2023/04/30 04:15:08;;;;;;;1.60;1.20;;;10.90;74.20;;;;;;5056844;28;20246;-70
2023/04/30 04:17:36;;;;;;;3.23;1.13;;;10.90;74.30;;;;;;5051795;28;20208;-70
2023/04/30 04:20:06;;;;;;;2.17;1.13;;;10.90;74.40;;;;;;5051857;28;20593;-70
2023/04/30 04:22:34;;;;;;;1.03;0.80;;;10.80;74.40;;;;;;5052179;28;20212;-70
2023/04/30 04:25:02;;;;;;;2.00;0.80;;;10.80;74.50;;;;;;5053516;28;20197;-69
2023/04/30 04:27:31;;;;;;;2.43;0.90;;;10.80;74.60;;;;;;5051658;28;20217;-70
2023/04/30 04:29:57;;;;;;;2.00;0.77;;;10.80;74.70;;;;;;5050393;28;20198;-69
2023/04/30 04:32:27;;;;;;;2.00;1.00;;;10.80;74.80;;;;;;5059087;28;20224;-70
2023/04/30 04:34:56;;;;;;;3.47;1.10;;;10.80;74.90;;;;;;5050851;28;20280;-70
2023/04/30 04:37:23;;;;;;;1.17;1.07;;;10.90;75.40;;;;;;5080354;28;20200;-70
2023/04/30 04:39:50;;;;;;;2.17;1.20;;;10.90;75.30;;;;;;5057933;28;20236;-70
2023/04/30 04:42:18;;;;;;;3.43;1.30;;;10.90;75.40;;;;;;5063299;28;20227;-70
2023/04/30 04:44:45;;;;;;;2.80;1.30;;;11.00;75.50;;;;;;5050583;28;20281;-70
2023/04/30 04:47:13;;;;;;;3.60;1.07;;;11.00;75.50;;;;;;5051355;28;20228;-70
2023/04/30 04:49:40;;;;;;;6.10;1.60;;;11.00;75.50;;;;;;5051114;28;20240;-68
2023/04/30 04:52:10;;;;;;;1.80;1.00;;;11.10;75.70;;;;;;5051467;28;20201;-69
2023/04/30 04:54:37;;;;;;;0.70;0.70;;;11.10;75.70;;;;;;5054353;28;20200;-69
2023/04/30 04:57:04;;;;;;;3.10;1.20;;;11.10;75.70;;;;;;5051068;28;20222;-69
2023/04/30 04:59:32;;;;;;;3.20;1.23;;;11.20;75.80;;;;;;5050448;28;20198;-70
2023/04/30 05:01:59;;;;;;;1.60;1.03;;;11.20;76.00;;;;;;5051140;28;20202;-69
2023/04/30 05:04:26;;;;;;;1.87;1.10;;;11.20;76.00;;;;;;5051358;28;20236;-71
2023/04/30 05:06:54;;;;;;;1.70;1.00;;;11.30;76.10;;;;;;5057074;28;20201;-69
2023/04/30 05:09:22;;;;;;;1.00;0.80;;;11.30;76.10;;;;;;5053499;28;20217;-70
2023/04/30 05:11:49;;;;;;;0.87;0.70;;;11.30;76.10;;;;;;5063178;28;20232;-69
2023/04/30 05:14:16;;;;;;;2.93;1.30;;;11.40;76.20;;;;;;5040940;28;20255;-69
2023/04/30 05:16:44;;;;;;;1.30;0.80;;;11.40;76.30;;;;;;5072156;28;20686;-69
2023/04/30 05:19:11;;;;;;;6.23;1.40;;;11.50;76.30;;;;;;5050978;28;20685;-70
2023/04/30 05:21:41;;;;;;;2.57;1.30;;;11.60;76.40;;;;;;5051366;28;20283;-69
2023/04/30 05:24:09;;;;;;;3.13;1.17;;;11.60;76.50;;;;;;5050256;28;20259;-70
2023/04/30 05:26:37;;;;;;;0.90;0.87;;;11.70;76.60;;;;;;5052609;28;20198;-69
2023/04/30 05:29:04;;;;;;;1.50;1.10;;;11.70;76.50;;;;;;5055839;28;20215;-69
2023/04/30 05:31:31;;;;;;;2.20;1.23;;;11.70;76.50;;;;;;5050877;28;20210;-69
2023/04/30 05:33:58;;;;;;;2.93;1.47;;;11.70;76.60;;;;;;5051412;28;20575;-69
2023/04/30 05:36:25;;;;;;;2.60;0.97;;;11.70;76.60;;;;;;5050567;28;20213;-70
2023/04/30 05:38:53;;;;;;;4.07;1.23;;;11.70;77.30;;;;;;5063385;28;20256;-70
2023/04/30 05:41:20;;;;;;;3.67;1.57;;;11.80;76.70;;;;;;5067541;28;20258;-69
2023/04/30 05:43:48;;;;;;;2.40;1.27;;;11.80;76.80;;;;;;5050316;28;20220;-70
2023/04/30 05:46:15;;;;;;;1.17;1.00;;;11.80;76.70;;;;;;5059169;28;20208;-69
2023/04/30 05:48:42;;;;;;;1.10;1.00;;;11.80;76.60;;;;;;5051430;28;20222;-69
2023/04/30 05:51:09;;;;;;;1.53;0.77;;;11.90;76.60;;;;;;5057706;28;20223;-69
2023/04/30 05:53:36;;;;;;;2.10;1.00;;;11.90;76.50;;;;;;5050551;28;20209;-69
2023/04/30 05:56:03;;;;;;;2.20;1.13;;;12.00;76.60;;;;;;5052098;28;20202;-69
2023/04/30 05:58:31;;;;;;;4.00;1.40;;;12.00;76.50;;;;;;5050151;28;20195;-69
2023/04/30 06:01:00;;;;;;;2.30;1.20;;;12.00;76.30;;;;;;5049074;28;20217;-69
2023/04/30 06:03:27;;;;;;;1.93;1.10;;;12.10;76.30;;;;;;5058715;28;20198;-69
2023/04/30 06:05:54;;;;;;;4.07;1.30;;;12.20;76.40;;;;;;5057105;28;20213;-69
2023/04/30 06:08:21;;;;;;;1.40;0.90;;;12.20;76.40;;;;;;5051238;28;20460;-68
2023/04/30 06:10:49;;;;;;;4.20;1.20;;;12.30;76.20;;;;;;5053483;28;20193;-68
2023/04/30 06:13:16;;;;;;;2.60;1.10;;;12.30;76.00;;;;;;5050490;28;20256;-69
2023/04/30 06:15:43;;;;;;;1.87;1.40;;;12.40;75.80;;;;;;5050701;28;20275;-69
2023/04/30 06:18:13;;;;;;;5.03;1.80;;;12.40;75.50;;;;;;5052301;28;20201;-70
2023/04/30 06:20:40;;;;;;;4.43;1.47;;;12.40;75.30;;;;;;5051059;28;20217;-69
2023/04/30 06:23:07;;;;;;;4.40;1.40;;;12.40;75.10;;;;;;5057121;28;20213;-69
2023/04/30 06:25:34;;;;;;;3.50;1.20;;;12.40;74.90;;;;;;5053935;28;20276;-69
2023/04/30 06:28:01;;;;;;;3.83;1.63;;;12.40;75.00;;;;;;5056972;28;20212;-69
2023/04/30 06:30:30;;;;;;;4.60;1.10;;;12.40;74.90;;;;;;5047373;28;20612;-68
2023/04/30 06:32:57;;;;;;;1.07;0.90;;;12.40;74.90;;;;;;5050660;28;20211;-70
2023/04/30 06:35:26;;;;;;;2.77;1.30;;;12.50;74.90;;;;;;5052350;28;20194;-68
2023/04/30 06:37:53;;;;;;;2.73;1.10;;;12.60;74.60;;;;;;5050732;28;20204;-70
2023/04/30 06:40:20;;;;;;;4.30;1.57;;;12.60;74.30;;;;;;5051042;28;20604;-70
2023/04/30 06:42:47;;;;;;;2.07;1.10;;;12.70;74.10;;;;;;5049652;28;20197;-70
2023/04/30 06:45:14;;;;;;;2.07;1.17;;;12.70;73.90;;;;;;5058783;28;20195;-70
2023/04/30 06:47:43;;;;;;;1.23;0.90;;;12.70;73.70;;;;;;5051271;28;20324;-70
2023/04/30 06:50:11;;;;;;;0.70;0.70;;;12.70;73.70;;;;;;5052581;28;20255;-70
2023/04/30 06:52:39;;;;;;;3.03;1.23;;;12.80;74.60;;;;;;5055269;28;20661;-70
2023/04/30 06:55:08;;;;;;;1.57;1.00;;;12.90;73.50;;;;;;5053092;28;20243;-70
2023/04/30 06:57:36;;;;;;;2.23;1.00;;;12.90;73.40;;;;;;5052710;28;20202;-70
2023/04/30 07:00:04;;;;;;;1.90;1.10;;;13.00;73.40;;;;;;5047841;28;20206;-71
2023/04/30 07:02:31;;;;;;;2.60;1.63;;;13.10;73.20;;;;;;5053148;28;20620;-70
2023/04/30 07:04:58;;;;;;;2.60;1.33;;;13.20;73.10;;;;;;5050048;28;20279;-70
2023/04/30 07:07:26;;;;;;;1.67;1.00;;;13.20;72.80;;;;;;5048485;28;20244;-71
2023/04/30 07:09:54;;;;;;;4.43;1.33;;;13.30;72.70;;;;;;5050200;28;20206;-68
2023/04/30 07:12:22;;;;;;;2.40;1.33;;;13.40;72.30;;;;;;5050248;28;20200;-68
2023/04/30 07:14:49;;;;;;;1.53;0.87;;;13.50;71.90;;;;;;5048068;28;20213;-71
2023/04/30 07:17:16;;;;;;;2.13;1.13;;;13.50;71.80;;;;;;5049818;28;20650;-69
2023/04/30 07:19:43;;;;;;;2.10;1.07;;;13.60;71.30;;;;;;5049041;28;20214;-69
2023/04/30 07:22:10;;;;;;;2.43;1.10;;;13.60;70.70;;;;;;5050109;28;20201;-70
2023/04/30 07:24:37;;;;;;;2.80;1.30;;;13.70;70.50;;;;;;5050681;28;20635;-70
2023/04/30 07:27:06;;;;;;;4.07;1.47;;;13.70;70.20;;;;;;5062705;28;20194;-69
2023/04/30 07:29:33;;;;;;;1.70;1.30;;;13.70;69.60;;;;;;5059884;28;20274;-69
2023/04/30 07:32:00;;;;;;;3.23;1.20;;;13.70;69.60;;;;;;5045137;28;20198;-69
2023/04/30 07:34:27;;;;;;;0.80;0.80;;;13.80;69.60;;;;;;5062707;28;20209;-70
2023/04/30 07:36:54;;;;;;;2.57;1.07;;;13.80;68.90;;;;;;5054082;28;20193;-70
2023/04/30 07:39:21;;;;;;;4.03;1.30;;;13.80;68.60;;;;;;5053845;28;20202;-70
2023/04/30 07:41:48;;;;;;;0.83;0.83;;;13.90;68.10;;;;;;5054158;28;20203;-69
2023/04/30 07:44:17;;;;;;;1.07;0.90;;;14.00;67.90;;;;;;5055288;28;20299;-70
2023/04/30 07:46:44;;;;;;;2.97;0.87;;;14.10;67.60;;;;;;5054171;28;20619;-69
2023/04/30 07:49:12;;;;;;;1.70;1.00;;;14.20;67.30;;;;;;5051757;28;20234;-69
2023/04/30 07:51:39;;;;;;;1.07;0.90;;;14.30;67.00;;;;;;5049127;28;20203;-70
2023/04/30 07:54:06;;;;;;;0.80;0.80;;;14.40;66.70;;;;;;5055235;28;20197;-70
2023/04/30 07:56:33;;;;;;;0.93;0.90;;;14.50;66.50;;;;;;5056399;28;20288;-70
2023/04/30 07:59:00;;;;;;;0.80;0.80;;;14.50;66.10;;;;;;5051474;28;20201;-70
2023/04/30 08:01:29;;;;;;;1.10;1.03;;;14.50;65.60;;;;;;5047376;28;20191;-70
2023/04/30 08:03:56;;;;;;;1.23;0.80;;;14.40;65.40;;;;;;5052563;28;20254;-70
2023/04/30 08:06:23;;;;;;;1.07;1.00;;;14.50;65.60;;;;;;5053015;28;20719;-68
2023/04/30 08:08:50;;;;;;;5.30;1.53;;;14.50;65.50;;;;;;5052725;28;20211;-68
2023/04/30 08:11:17;;;;;;;1.77;1.13;;;14.60;64.70;;;;;;5052920;28;20197;-68
2023/04/30 08:13:45;;;;;;;1.00;0.80;;;14.70;64.10;;;;;;5049740;28;20191;-68
2023/04/30 08:16:12;;;;;;;1.10;1.00;;;14.80;64.00;;;;;;5051744;28;20208;-69
2023/04/30 08:18:43;;;;;;;1.13;0.87;;;14.90;64.10;;;;;;5047241;28;20516;-68
2023/04/30 08:21:11;;;;;;;0.90;0.70;;;15.00;63.90;;;;;;5052739;28;20199;-69
2023/04/30 08:23:38;;;;;;;4.47;1.00;;;15.10;63.80;;;;;;5052350;28;20201;-67
2023/04/30 08:26:05;;;;;;;1.17;0.73;;;15.10;63.00;;;;;;5059844;28;20211;-68
2023/04/30 08:28:32;;;;;;;2.13;1.03;;;15.10;62.80;;;;;;5047888;28;20206;-67
2023/04/30 08:30:59;;;;;;;1.57;1.10;;;15.00;61.80;;;;;;5050644;28;20227;-68
2023/04/30 08:33:26;;;;;;;3.40;1.20;;;15.00;61.80;;;;;;5054994;28;20197;-68
2023/04/30 08:35:55;;;;;;;2.67;1.20;;;15.10;61.10;;;;;;5052787;28;20197;-67
2023/04/30 08:38:22;;;;;;;3.80;1.53;;;15.10;59.80;;;;;;5051952;28;20181;-67
2023/04/30 08:41:05;;;;;;;2.67;1.33;;;15.10;59.30;;;;;;5050738;28;20209;-69
2023/04/30 08:43:35;;;;;;;1.13;1.00;;;15.10;59.30;;;;;;5042012;28;20254;-68
2023/04/30 08:46:02;;;;;;;0.80;0.80;;;15.10;59.00;;;;;;5057855;28;20590;-68
2023/04/30 08:48:30;;;;;;;2.23;1.00;;;15.10;59.20;;;;;;5050986;28;20205;-68
2023/04/30 08:51:01;;;;;;;1.00;0.90;;;15.10;58.60;;;;;;5046533;28;20271;-68
2023/04/30 08:53:30;;;;;;;2.27;1.10;;;15.10;58.00;;;;;;5056828;28;20192;-67
2023/04/30 08:55:58;;;;;;;2.10;0.87;;;15.10;58.20;;;;;;5056453;28;20668;-68
2023/04/30 08:58:25;;;;;;;0.90;0.90;;;15.30;58.30;;;;;;5051086;28;20201;-67
2023/04/30 09:00:52;;;;;;;1.07;0.90;;;15.40;57.30;;;;;;5052734;28;20201;-67
2023/04/30 09:03:20;;;;;;;0.80;0.80;;;15.60;57.40;;;;;;5054506;28;20671;-67
2023/04/30 09:05:48;;;;;;;0.67;0.67;;;15.70;56.80;;;;;;5048666;28;20297;-66
2023/04/30 09:08:19;;;;;;;2.40;1.20;;;15.70;55.90;;;;;;5051912;28;20216;-67
2023/04/30 09:10:46;;;;;;;2.50;1.10;;;15.80;55.70;;;;;;5052740;28;20572;-66
2023/04/30 09:13:13;;;;;;;3.93;1.03;;;15.80;55.00;;;;;;5050911;28;20209;-66
2023/04/30 09:15:41;;;;;;;1.37;0.93;;;15.80;55.30;;;;;;5038486;28;20198;-66
2023/04/30 09:18:16;;;;;;;2.77;0.80;;;15.80;55.00;;;;;;5046173;28;20244;-67
2023/04/30 09:20:56;;;;;;;0.70;0.70;;;16.00;55.50;;;;;;5063898;28;20250;-68
2023/04/30 09:23:25;;;;;;;3.50;0.90;;;16.00;55.60;;;;;;5050999;28;20657;-68
2023/04/30 09:25:52;;;;;;;0.80;0.80;;;16.10;55.30;;;;;;5050885;28;20194;-68
2023/04/30 09:28:23;;;;;;;2.00;0.77;;;16.10;54.60;;;;;;5051177;28;20213;-67
2023/04/30 09:30:51;;;;;;;1.23;0.83;;;16.20;54.60;;;;;;5050770;28;20269;-68
2023/04/30 09:33:19;;;;;;;1.37;1.00;;;16.20;54.50;;;;;;5050127;28;20210;-68
2023/04/30 09:35:46;;;;;;;1.20;1.00;;;16.30;54.50;;;;;;5050650;28;20225;-67
2023/04/30 09:38:28;;;;;;;2.37;0.80;;;16.40;54.40;;;;;;5049989;28;20213;-67
2023/04/30 09:40:58;;;;;;;0.50;0.50;;;16.40;54.40;;;;;;5050690;28;20201;-67
2023/04/30 09:43:25;;;;;;;0.93;0.80;;;16.40;54.20;;;;;;5048787;28;20225;-66
2023/04/30 09:45:52;;;;;;;1.20;0.80;;;16.40;54.10;;;;;;5049516;28;20225;-67
2023/04/30 09:48:22;;;;;;;1.90;0.83;;;16.50;54.30;;;;;;5069762;28;20193;-67
2023/04/30 09:50:50;;;;;;;3.53;1.30;;;16.60;54.30;;;;;;5056891;28;20194;-67
2023/04/30 09:53:18;;;;;;;1.83;1.20;;;16.60;53.20;;;;;;5059043;28;20217;-67
2023/04/30 09:55:49;;;;;;;1.17;0.90;;;16.50;53.30;;;;;;5058140;28;20509;-67
2023/04/30 09:58:18;;;;;;;1.10;1.00;;;16.50;53.60;;;;;;5049770;28;20660;-67
2023/04/30 10:00:47;;;;;;;0.80;0.80;;;16.40;53.50;;;;;;5058501;28;20256;-67
2023/04/30 10:03:15;;;;;;;1.00;0.60;;;16.40;53.70;;;;;;5051563;28;20277;-67
2023/04/30 10:05:45;;;;;;;0.70;0.70;;;16.50;53.70;;;;;;5044153;28;20426;-67
2023/04/30 10:08:19;;;;;;;2.47;0.90;;;16.60;53.70;;;;;;5044707;28;20662;-67
2023/04/30 10:10:52;;;;;;;3.57;1.23;;;16.60;53.40;;;;;;5038641;28;20269;-67
2023/04/30 10:13:25;;;;;;;1.10;0.90;;;16.70;52.70;;;;;;5043063;28;20252;-67
2023/04/30 10:15:57;;;;;;;0.73;0.73;;;16.70;52.70;;;;;;5044966;28;20273;-67
2023/04/30 10:18:30;;;;;;;1.17;0.70;;;16.90;52.80;;;;;;5048216;28;20233;-67
2023/04/30 10:20:59;;;;;;;0.70;0.70;;;17.10;52.90;;;;;;5050151;28;20198;-68
2023/04/30 10:23:26;;;;;;;0.90;0.90;;;17.30;52.60;;;;;;5058312;28;20224;-68
2023/04/30 10:25:56;;;;;;;4.43;1.10;;;17.50;52.10;;;;;;5050363;28;20669;-68
2023/04/30 10:28:23;;;;;;;0.60;0.50;;;17.60;51.80;;;;;;5049488;28;20202;-68
2023/04/30 10:30:51;;;;;;;0.90;0.70;;;17.80;51.80;;;;;;5055126;28;20278;-68
2023/04/30 10:33:28;;;;;;;0.90;0.60;;;17.90;51.30;;;;;;5049297;28;20207;-68
2023/04/30 10:36:00;;;;;;;0.70;0.60;;;17.90;50.50;;;;;;5051040;28;20194;-68
2023/04/30 10:38:29;;;;;;;0.70;0.70;;;17.80;50.20;;;;;;5051414;28;20194;-68
2023/04/30 10:40:58;;;;;;;0.60;0.60;;;17.70;50.10;;;;;;5050538;28;20278;-68
2023/04/30 10:43:26;;;;;;;2.17;0.70;;;17.60;49.20;;;;;;5049172;28;20282;-67
2023/04/30 10:45:53;;;;;;;0.60;0.50;;;17.60;48.80;;;;;;5049892;28;20211;-68
2023/04/30 10:48:25;;;;;;;1.40;0.90;;;17.70;48.90;;;;;;5058644;28;20254;-68
2023/04/30 10:50:55;;;;;;;2.30;1.33;;;17.80;48.00;;;;;;5053010;28;20230;-69
2023/04/30 10:53:24;;;;;;;0.90;0.90;;;17.90;47.60;;;;;;5050317;28;20200;-68
2023/04/30 10:55:53;;;;;;;0.90;0.90;;;17.90;47.90;;;;;;5049180;28;20615;-68
2023/04/30 10:58:27;;;;;;;1.47;0.70;;;18.10;48.10;;;;;;5049034;28;20206;-68
2023/04/30 11:01:03;;;;;;;1.10;0.85;;;18.30;48.10;;;;;;5047705;28;20269;-68
2023/04/30 11:03:31;;;;;;;0.52;0.52;;;18.40;47.60;;;;;;5048723;28;20686;-68
2023/04/30 11:06:02;;;;;;;0.80;0.80;;;18.50;47.40;;;;;;5053697;28;20189;-68
2023/04/30 11:08:37;;;;;;;0.57;0.57;;;18.50;47.20;;;;;;5047200;28;20267;-68
2023/04/30 11:11:04;;;;;;;1.60;0.70;;;18.70;47.20;;;;;;5048872;28;20219;-68
2023/04/30 11:13:45;;;;;;;1.70;0.77;;;18.80;46.60;;;;;;5048933;28;20201;-68
2023/04/30 11:16:12;;;;;;;0.93;0.80;;;18.90;46.10;;;;;;5050380;28;20210;-68
2023/04/30 11:18:43;;;;;;;1.05;1.05;;;18.80;45.50;;;;;;5050031;28;20200;-67
2023/04/30 11:21:10;;;;;;;0.80;0.80;;;18.70;45.00;;;;;;5050501;28;20204;-67
2023/04/30 11:23:42;;;;;;;1.10;1.00;;;18.60;44.50;;;;;;5059680;28;20557;-68
2023/04/30 11:26:09;;;;;;;1.90;1.10;;;18.50;44.10;;;;;;5053984;28;20192;-68
2023/04/30 11:28:37;;;;;;;1.83;1.10;;;18.40;43.50;;;;;;5050845;28;20359;-67
2023/04/30 11:31:06;;;;;;;2.50;1.17;;;18.40;43.20;;;;;;5049372;28;20227;-68
2023/04/30 11:33:34;;;;;;;0.90;0.90;;;18.40;43.50;;;;;;5049899;28;20221;-68
2023/04/30 11:36:02;;;;;;;0.63;0.63;;;18.30;43.70;;;;;;5054609;28;20667;-68
2023/04/30 11:38:33;;;;;;;1.17;1.00;;;18.40;44.10;;;;;;5049786;28;20273;-68
2023/04/30 11:41:01;;;;;;;1.20;0.90;;;18.50;44.10;;;;;;5053095;28;20269;-68
2023/04/30 11:43:30;;;;;;;2.55;1.23;;;18.60;44.00;;;;;;5049948;28;20212;-67
2023/04/30 11:46:09;;;;;;;2.15;1.23;;;18.60;43.60;;;;;;5052827;28;20256;-68
2023/04/30 11:48:37;;;;;;;1.65;0.90;;;18.50;43.60;;;;;;5049143;28;20197;-68
2023/04/30 11:51:06;;;;;;;2.70;1.00;;;18.60;44.00;;;;;;5048898;28;20205;-67
2023/04/30 11:53:33;;;;;;;4.10;1.20;;;18.70;43.80;;;;;;5050521;28;20255;-68
2023/04/30 11:56:05;;;;;;;2.90;1.30;;;18.70;43.40;;;;;;5050440;28;20194;-68
2023/04/30 11:58:36;;;;;;;1.50;1.40;;;18.60;42.70;;;;;;5050362;28;20193;-67
2023/04/30 12:01:04;;;;;;;1.90;1.10;;;18.50;42.50;;;;;;5049098;28;20284;-68
2023/04/30 12:03:33;;;;;;;1.27;1.17;;;18.50;42.20;;;;;;5050051;28;20198;-68
2023/04/30 12:06:01;;;;;;;2.33;1.13;;;18.40;42.20;;;;;;5049530;28;20238;-68
2023/04/30 12:08:28;;;;;;;1.20;1.10;;;18.40;42.10;;;;;;5054719;28;20249;-68
2023/04/30 12:10:55;;;;;;;1.95;1.20;;;18.30;41.70;;;;;;5045944;28;20217;-68
2023/04/30 12:13:23;;;;;;;1.40;1.30;;;18.40;41.60;;;;;;5049370;28;20204;-68
2023/04/30 12:15:59;;;;;;;1.20;1.10;;;18.50;42.00;;;;;;5060546;28;20203;-68
2023/04/30 12:18:27;;;;;;;1.33;0.82;;;18.60;42.50;;;;;;5058457;28;20212;-68
2023/04/30 12:20:55;;;;;;;2.33;0.77;;;18.70;42.40;;;;;;5052315;28;20211;-68
2023/04/30 12:23:22;;;;;;;0.75;0.75;;;18.70;42.50;;;;;;5057973;28;20310;-67
2023/04/30 12:25:50;;;;;;;1.25;0.98;;;18.80;42.60;;;;;;5053238;28;20196;-69
2023/04/30 12:28:17;;;;;;;1.10;0.98;;;18.90;42.60;;;;;;5055913;28;20200;-68
2023/04/30 12:30:45;;;;;;;2.20;1.20;;;19.10;42.50;;;;;;5051077;28;20209;-69
2023/04/30 12:33:12;;;;;;;2.85;1.45;;;18.90;41.90;;;;;;5054493;28;20688;-68
2023/04/30 12:35:43;;;;;;;2.67;1.58;;;18.80;41.50;;;;;;5053464;28;20775;-68
2023/04/30 12:38:15;;;;;;;1.20;1.08;;;18.70;41.50;;;;;;5053079;28;20716;-68
2023/04/30 12:40:47;;;;;;;1.90;1.03;;;18.70;41.40;;;;;;5057556;28;20280;-68
2023/04/30 12:43:17;;;;;;;1.02;0.90;;;18.60;41.50;;;;;;5057072;28;20497;-68
2023/04/30 12:45:50;;;;;;;0.90;0.90;;;18.60;41.60;;;;;;5052155;28;20250;-68
2023/04/30 12:48:18;;;;;;;1.10;1.00;;;18.60;41.70;;;;;;5054008;28;20213;-69
2023/04/30 12:50:52;;;;;;;0.80;0.80;;;18.60;41.70;;;;;;5053270;28;20216;-68
2023/04/30 12:53:22;;;;;;;0.70;0.70;;;18.60;41.80;;;;;;5053022;28;20570;-68
2023/04/30 12:56:09;;;;;;;1.65;1.00;;;18.70;42.00;;;;;;5053115;28;20193;-68